Time;durP1;ratioP1;P1;durP2;ratioP2;P2;SDS_P1;SDS_P2;PMS_P1;PMS_P2;Temp;Humidity;BMP_temperature;BMP_pressure;BME280_temperature;BME280_humidity;BME280_pressure;Samples;Min_cycle;Max_cycle;Signal;HPM_P1;HPM_P2
2023/10/23 00:04:50;;;;;;;;;;;11.90;99.90;;;;;;12606177;28;20410;-37
2023/10/23 00:10:52;;;;;;;;;;;11.90;99.90;;;;;;12609564;28;20003;-37
2023/10/23 00:16:54;;;;;;;;;;;11.90;99.90;;;;;;12609372;28;19996;-37
2023/10/23 00:22:56;;;;;;;;;;;11.90;99.90;;;;;;12609666;28;19928;-37
2023/10/23 00:28:58;;;;;;;;;;;11.90;99.90;;;;;;12604679;28;19949;-37
2023/10/23 00:34:59;;;;;;;;;;;11.90;99.90;;;;;;12609982;28;19934;-36
2023/10/23 00:41:01;;;;;;;;;;;11.90;99.90;;;;;;12608937;28;20384;-37
2023/10/23 00:47:03;;;;;;;;;;;11.90;99.90;;;;;;12599846;28;19932;-37
2023/10/23 00:53:05;;;;;;;;;;;12.00;99.90;;;;;;12611582;28;20865;-37
2023/10/23 00:59:08;;;;;;;;;;;11.90;99.90;;;;;;12586600;28;20337;-38
2023/10/23 01:05:09;;;;;;;;;;;11.90;99.90;;;;;;12611558;28;19930;-37
2023/10/23 01:11:11;;;;;;;;;;;11.90;99.90;;;;;;12616243;28;20006;-37
2023/10/23 01:17:13;;;;;;;;;;;12.10;99.90;;;;;;12555873;28;19925;-37
2023/10/23 01:23:15;;;;;;;;;;;12.00;99.90;;;;;;12546965;28;19956;-37
2023/10/23 01:29:17;;;;;;;;;;;12.00;99.90;;;;;;12563634;28;19988;-36
2023/10/23 01:35:18;;;;;;;;;;;12.00;99.90;;;;;;12512077;28;20524;-37
2023/10/23 01:41:20;;;;;;;;;;;12.00;99.90;;;;;;12543553;28;20346;-37
2023/10/23 01:47:25;;;;;;;;;;;12.00;99.90;;;;;;12547746;28;19928;-37
2023/10/23 01:53:27;;;;;;;;;;;11.90;99.90;;;;;;12553195;28;19990;-37
2023/10/23 01:59:29;;;;;;;;;;;12.00;99.90;;;;;;12541195;28;20328;-37
2023/10/23 02:05:31;;;;;;;;;;;12.10;99.90;;;;;;12525915;28;20326;-37
2023/10/23 02:11:32;;;;;;;;;;;12.00;99.90;;;;;;12564224;28;19928;-37
2023/10/23 02:17:34;;;;;;;;;;;12.10;99.90;;;;;;12604041;28;19928;-37
2023/10/23 02:23:36;;;;;;;;;;;12.10;99.90;;;;;;12628529;28;19935;-37
2023/10/23 02:29:54;;;;;;;;;;;12.00;99.90;;;;;;12620034;28;19951;-37
2023/10/23 02:35:55;;;;;;;;;;;12.00;99.90;;;;;;12606006;28;20306;-37
2023/10/23 02:41:57;;;;;;;;;;;12.00;99.90;;;;;;12607858;28;20556;-37
2023/10/23 02:47:59;;;;;;;;;;;12.00;99.90;;;;;;12610110;28;19999;-36
2023/10/23 02:54:01;;;;;;;;;;;12.00;99.90;;;;;;12607710;28;20451;-37
2023/10/23 03:00:05;;;;;;;;;;;11.90;99.90;;;;;;12615203;28;20448;-37
2023/10/23 03:06:07;;;;;;;;;;;12.00;99.90;;;;;;12577822;28;19934;-37
2023/10/23 03:12:08;;;;;;;;;;;12.00;99.90;;;;;;12607442;28;20074;-37
2023/10/23 03:18:10;;;;;;;;;;;12.00;99.90;;;;;;12614516;28;19932;-37
2023/10/23 03:24:12;;;;;;;;;;;12.10;99.90;;;;;;12607363;28;19932;-38
2023/10/23 03:30:14;;;;;;;;;;;11.90;99.90;;;;;;12542344;28;19981;-37
2023/10/23 03:36:16;;;;;;;;;;;11.70;99.90;;;;;;12595343;28;19939;-37
2023/10/23 03:42:17;;;;;;;;;;;11.90;99.90;;;;;;12598936;28;19928;-38
2023/10/23 03:48:19;;;;;;;;;;;11.90;99.90;;;;;;12598313;28;19924;-37
2023/10/23 03:54:21;;;;;;;;;;;11.80;99.90;;;;;;12606020;28;19928;-37
2023/10/23 04:00:23;;;;;;;;;;;11.80;99.90;;;;;;12608832;28;20001;-37
2023/10/23 04:06:25;;;;;;;;;;;11.80;99.90;;;;;;12612335;28;20484;-37
2023/10/23 04:12:26;;;;;;;;;;;11.70;99.90;;;;;;12606648;28;20422;-38
2023/10/23 04:18:28;;;;;;;;;;;11.70;99.90;;;;;;12552364;28;20420;-37
2023/10/23 04:24:30;;;;;;;;;;;11.70;99.90;;;;;;12548178;28;19951;-36
2023/10/23 04:30:32;;;;;;;;;;;11.80;99.90;;;;;;12549346;28;20300;-37
2023/10/23 04:36:33;;;;;;;;;;;11.80;99.90;;;;;;12551870;28;20377;-37
2023/10/23 04:42:35;;;;;;;;;;;11.70;99.90;;;;;;12547785;28;20308;-37
2023/10/23 04:48:37;;;;;;;;;;;11.70;99.90;;;;;;12547406;28;19928;-37
2023/10/23 04:54:39;;;;;;;;;;;11.60;99.90;;;;;;12537528;28;20389;-37
2023/10/23 05:00:41;;;;;;;;;;;11.60;99.90;;;;;;12537746;28;19939;-37
2023/10/23 05:06:42;;;;;;;;;;;11.50;99.90;;;;;;12545405;28;20443;-37
2023/10/23 05:12:46;;;;;;;;;;;11.40;99.90;;;;;;12558663;28;19966;-37
2023/10/23 05:18:49;;;;;;;;;;;11.20;99.90;;;;;;12617557;28;19993;-37
2023/10/23 05:24:51;;;;;;;;;;;11.10;99.90;;;;;;12600923;28;19928;-37
2023/10/23 05:30:53;;;;;;;;;;;10.90;99.90;;;;;;12613530;28;19931;-37
2023/10/23 05:36:55;;;;;;;;;;;10.70;99.90;;;;;;12609942;28;19935;-37
2023/10/23 05:42:56;;;;;;;;;;;10.70;99.90;;;;;;12612062;28;19982;-37
2023/10/23 05:48:59;;;;;;;;;;;10.70;99.90;;;;;;12608693;28;20502;-37
2023/10/23 05:55:04;;;;;;;;;;;10.50;99.90;;;;;;12584193;28;19934;-37
2023/10/23 06:01:06;;;;;;;;;;;10.40;99.90;;;;;;12605291;28;20398;-37
2023/10/23 06:07:09;;;;;;;;;;;10.50;99.90;;;;;;12598142;28;19946;-37
2023/10/23 06:13:14;;;;;;;;;;;10.50;99.90;;;;;;12614905;28;20563;-37
2023/10/23 06:19:15;;;;;;;;;;;10.50;99.90;;;;;;12550330;28;19930;-37
2023/10/23 06:25:17;;;;;;;;;;;10.70;99.90;;;;;;12557355;28;20620;-38
2023/10/23 06:31:19;;;;;;;;;;;10.80;99.90;;;;;;12556129;28;19928;-37
2023/10/23 06:37:20;;;;;;;;;;;11.00;99.90;;;;;;12546665;28;19925;-37
2023/10/23 06:43:22;;;;;;;;;;;11.20;99.90;;;;;;12554468;28;19928;-37
2023/10/23 06:49:24;;;;;;;;;;;11.30;99.90;;;;;;12546202;28;20323;-37
2023/10/23 06:55:27;;;;;;;;;;;11.50;99.90;;;;;;12535078;28;19928;-37
2023/10/23 07:01:29;;;;;;;;;;;11.60;99.90;;;;;;12542221;28;19935;-36
2023/10/23 07:07:45;;;;;;;;;;;11.70;99.90;;;;;;12546841;28;19950;-37
2023/10/23 07:13:47;;;;;;;;;;;11.70;99.90;;;;;;12553403;28;19932;-37
2023/10/23 07:19:50;;;;;;;;;;;11.70;99.90;;;;;;12620776;28;20527;-37
2023/10/23 07:26:02;;;;;;;;;;;11.70;99.90;;;;;;12597280;28;20284;-37
2023/10/23 07:32:04;;;;;;;;;;;11.00;99.90;;;;;;12611539;28;20350;-37
2023/10/23 07:38:06;;;;;;;;;;;11.30;99.90;;;;;;12605729;28;19924;-37
2023/10/23 07:44:08;;;;;;;;;;;11.60;99.90;;;;;;12604671;28;19928;-37
2023/10/23 07:50:10;;;;;;;;;;;11.50;99.90;;;;;;12620369;28;20047;-37
2023/10/23 07:56:12;;;;;;;;;;;11.50;99.90;;;;;;12606859;28;19969;-37
2023/10/23 08:02:15;;;;;;;;;;;11.60;99.90;;;;;;12622230;28;20269;-37
2023/10/23 08:08:17;;;;;;;;;;;11.80;99.90;;;;;;12584985;28;19927;-37
2023/10/23 08:14:18;;;;;;;;;;;11.80;99.90;;;;;;12599193;28;19928;-37
2023/10/23 08:20:20;;;;;;;;;;;12.00;99.90;;;;;;12533113;28;20421;-45
2023/10/23 08:26:22;;;;;;;;;;;12.10;99.90;;;;;;12526297;28;19936;-37
2023/10/23 08:32:24;;;;;;;;;;;12.70;99.90;;;;;;12529181;28;20491;-36
2023/10/23 08:38:38;;;;;;;;;;;13.10;99.90;;;;;;12533107;28;20448;-37
2023/10/23 08:44:41;;;;;;;;;;;13.60;99.90;;;;;;12539388;28;19974;-37
2023/10/23 08:50:43;;;;;;;;;;;13.30;99.90;;;;;;12543108;28;20015;-37
2023/10/23 08:57:00;;;;;;;;;;;13.80;99.90;;;;;;12532281;28;20023;-37
2023/10/23 09:03:04;;;;;;;;;;;14.00;99.90;;;;;;12516361;28;20198;-37
2023/10/23 09:09:06;;;;;;;;;;;14.10;99.90;;;;;;12547168;28;19967;-37
2023/10/23 09:15:14;;;;;;;;;;;13.80;99.90;;;;;;12551779;28;20396;-37
2023/10/23 09:21:15;;;;;;;;;;;13.90;99.90;;;;;;12518336;28;20007;-37
2023/10/23 09:27:22;;;;;;;;;;;14.30;99.90;;;;;;12536615;28;19934;-37
2023/10/23 09:33:24;;;;;;;;;;;14.70;99.90;;;;;;12525859;28;19925;-37
2023/10/23 09:39:25;;;;;;;;;;;14.50;99.90;;;;;;12548684;28;20407;-38
2023/10/23 09:45:27;;;;;;;;;;;14.60;99.90;;;;;;12540848;28;19981;-39
2023/10/23 09:51:30;;;;;;;;;;;14.60;99.90;;;;;;12535668;28;20347;-38
2023/10/23 09:57:32;;;;;;;;;;;15.20;99.90;;;;;;12556472;28;19959;-37
2023/10/23 10:03:35;;;;;;;;;;;14.80;99.90;;;;;;12534926;28;19936;-37
2023/10/23 10:09:37;;;;;;;;;;;15.00;99.90;;;;;;12545426;28;19928;-38
2023/10/23 10:15:39;;;;;;;;;;;15.20;99.90;;;;;;12593363;28;19968;-37
2023/10/23 10:21:53;;;;;;;;;;;15.40;99.90;;;;;;12611401;28;20799;-37
2023/10/23 10:28:02;;;;;;;;;;;15.60;99.90;;;;;;12602536;28;20018;-37
2023/10/23 10:34:04;;;;;;;;;;;15.60;99.90;;;;;;12619354;28;20109;-37
2023/10/23 10:40:26;;;;;;;;;;;14.60;99.90;;;;;;12619221;28;19969;-37
2023/10/23 10:46:29;;;;;;;;;;;15.30;99.90;;;;;;12583474;28;19928;-37
2023/10/23 10:52:35;;;;;;;;;;;15.40;99.90;;;;;;12589211;28;19927;-37
2023/10/23 10:58:38;;;;;;;;;;;15.70;99.90;;;;;;12610136;28;19934;-38
2023/10/23 11:04:40;;;;;;;;;;;16.20;99.90;;;;;;12611677;28;19928;-38
2023/10/23 11:10:42;;;;;;;;;;;15.60;99.90;;;;;;12619592;28;20039;-37
2023/10/23 11:16:44;;;;;;;;;;;16.40;99.90;;;;;;12621183;28;22104;-38
2023/10/23 11:22:49;;;;;;;;;;;15.60;99.90;;;;;;12614782;28;19932;-37
2023/10/23 11:28:50;;;;;;;;;;;15.80;99.90;;;;;;12601770;28;20337;-37
2023/10/23 11:34:52;;;;;;;;;;;15.50;99.90;;;;;;12593229;28;20353;-38
2023/10/23 11:40:54;;;;;;;;;;;15.60;99.90;;;;;;12604752;28;19939;-37
2023/10/23 11:46:59;;;;;;;;;;;15.40;99.90;;;;;;12611840;28;19981;-38
2023/10/23 11:53:03;;;;;;;;;;;15.40;99.90;;;;;;12616797;28;19928;-38
2023/10/23 11:59:06;;;;;;;;;;;14.70;99.90;;;;;;12621105;28;19932;-37
2023/10/23 12:05:12;;;;;;;;;;;14.90;99.90;;;;;;12611146;28;19982;-37
2023/10/23 12:11:14;;;;;;;;;;;14.80;99.90;;;;;;12611232;28;20261;-37
2023/10/23 12:17:16;;;;;;;;;;;15.20;99.90;;;;;;12612433;28;19965;-37
2023/10/23 12:23:17;;;;;;;;;;;15.40;99.90;;;;;;12605456;28;19932;-37
2023/10/23 12:29:19;;;;;;;;;;;15.50;99.90;;;;;;12596355;28;19950;-37
2023/10/23 12:35:21;;;;;;;;;;;15.30;99.90;;;;;;12616191;28;19931;-39
2023/10/23 12:41:23;;;;;;;;;;;15.30;99.90;;;;;;12589524;28;20532;-37
2023/10/23 12:47:25;;;;;;;;;;;14.90;99.90;;;;;;12609318;28;20288;-38
2023/10/23 12:53:27;;;;;;;;;;;14.50;99.90;;;;;;12591367;28;19928;-37
2023/10/23 12:59:33;;;;;;;;;;;14.40;99.90;;;;;;12590207;28;19928;-37
2023/10/23 13:05:34;;;;;;;;;;;14.30;99.90;;;;;;12603411;28;19938;-37
2023/10/23 13:11:36;;;;;;;;;;;14.40;99.90;;;;;;12602000;28;20062;-38
2023/10/23 13:17:38;;;;;;;;;;;14.40;99.90;;;;;;12563434;28;20191;-37
2023/10/23 13:23:40;;;;;;;;;;;14.50;99.90;;;;;;12540817;28;20338;-36
2023/10/23 13:29:42;;;;;;;;;;;14.20;99.90;;;;;;12548743;28;20083;-37
2023/10/23 13:35:44;;;;;;;;;;;14.10;99.90;;;;;;12528784;28;19939;-37
2023/10/23 13:41:46;;;;;;;;;;;14.00;99.90;;;;;;12537656;28;19963;-36
2023/10/23 13:47:47;;;;;;;;;;;13.90;99.90;;;;;;12531542;28;19928;-38
2023/10/23 13:53:49;;;;;;;;;;;13.80;99.90;;;;;;12528100;28;19979;-37
2023/10/23 13:59:51;;;;;;;;;;;13.80;99.90;;;;;;12541158;28;20380;-37
2023/10/23 14:05:53;;;;;;;;;;;13.80;99.90;;;;;;12544631;28;19981;-37
2023/10/23 14:11:54;;;;;;;;;;;13.60;99.90;;;;;;12547412;28;19933;-37
2023/10/23 14:18:02;;;;;;;;;;;13.50;99.90;;;;;;12597805;28;19936;-37
2023/10/23 14:24:04;;;;;;;;;;;13.50;99.90;;;;;;12600068;28;19980;-37
2023/10/23 14:30:06;;;;;;;;;;;13.40;99.90;;;;;;12596715;28;19932;-37
2023/10/23 14:36:12;;;;;;;;;;;13.40;99.90;;;;;;12622197;28;19928;-36
2023/10/23 14:42:13;;;;;;;;;;;13.30;99.90;;;;;;12601604;28;20005;-37
2023/10/23 14:48:15;;;;;;;;;;;13.30;99.90;;;;;;12612976;28;19924;-36
2023/10/23 14:54:17;;;;;;;;;;;13.20;99.90;;;;;;12616205;28;20023;-37
2023/10/23 15:00:19;;;;;;;;;;;13.20;99.90;;;;;;12623408;28;19935;-36
2023/10/23 15:06:21;;;;;;;;;;;13.20;99.90;;;;;;12621722;28;20505;-36
2023/10/23 15:12:22;;;;;;;;;;;13.10;99.90;;;;;;12613242;28;20431;-37
2023/10/23 15:18:25;;;;;;;;;;;13.00;99.90;;;;;;12590105;28;19930;-37
2023/10/23 15:24:26;;;;;;;;;;;12.90;99.90;;;;;;12578133;28;19938;-36
2023/10/23 15:30:30;;;;;;;;;;;12.90;99.90;;;;;;12614242;28;19951;-36
2023/10/23 15:36:31;;;;;;;;;;;12.90;99.90;;;;;;12599957;28;19928;-36
2023/10/23 15:42:33;;;;;;;;;;;12.80;99.90;;;;;;12617205;28;19928;-36
2023/10/23 15:48:35;;;;;;;;;;;12.80;99.90;;;;;;12613144;28;20384;-36
2023/10/23 15:54:37;;;;;;;;;;;12.80;99.90;;;;;;12601615;28;19935;-36
2023/10/23 16:00:39;;;;;;;;;;;12.80;99.90;;;;;;12616015;28;20366;-37
2023/10/23 16:06:42;;;;;;;;;;;12.70;99.90;;;;;;12620348;28;19932;-37
2023/10/23 16:12:43;;;;;;;;;;;12.60;99.90;;;;;;12604125;28;20404;-37
2023/10/23 16:18:45;;;;;;;;;;;12.70;99.90;;;;;;12607472;28;19924;-36
2023/10/23 16:24:48;;;;;;;;;;;12.60;99.90;;;;;;12610756;28;20394;-36
2023/10/23 16:30:50;;;;;;;;;;;12.40;99.90;;;;;;12608971;28;20019;-36
2023/10/23 16:36:51;;;;;;;;;;;12.30;99.90;;;;;;12605334;28;19993;-37
2023/10/23 16:42:53;;;;;;;;;;;12.30;99.90;;;;;;12600318;28;19932;-37
2023/10/23 16:48:55;;;;;;;;;;;12.20;99.90;;;;;;12621751;28;20308;-37
2023/10/23 16:54:57;;;;;;;;;;;12.20;99.90;;;;;;12609301;28;20031;-36
2023/10/23 17:01:03;;;;;;;;;;;12.20;99.90;;;;;;12614341;28;20399;-36
2023/10/23 17:07:06;;;;;;;;;;;12.10;99.90;;;;;;12602507;28;21031;-37
2023/10/23 17:13:07;;;;;;;;;;;12.10;99.90;;;;;;12602666;28;19929;-36
2023/10/23 17:19:10;;;;;;;;;;;12.10;99.90;;;;;;12613665;28;20248;-36
2023/10/23 17:25:12;;;;;;;;;;;12.20;99.90;;;;;;12590952;28;19924;-37
2023/10/23 17:31:14;;;;;;;;;;;12.10;99.90;;;;;;12604041;28;19928;-37
2023/10/23 17:37:15;;;;;;;;;;;12.10;99.90;;;;;;12601548;28;19975;-36
2023/10/23 17:43:19;;;;;;;;;;;12.10;99.90;;;;;;12596546;28;19928;-36
2023/10/23 17:49:21;;;;;;;;;;;12.10;99.90;;;;;;12615092;28;20290;-36
2023/10/23 17:55:24;;;;;;;;;;;12.10;99.90;;;;;;12602126;28;19924;-37
2023/10/23 18:01:25;;;;;;;;;;;12.10;99.90;;;;;;12607576;28;19946;-36
2023/10/23 18:07:27;;;;;;;;;;;12.10;99.90;;;;;;12607494;28;20380;-36
2023/10/23 18:13:29;;;;;;;;;;;12.20;99.90;;;;;;12601636;28;19940;-37
2023/10/23 18:19:32;;;;;;;;;;;12.10;99.90;;;;;;12540570;28;19981;-36
2023/10/23 18:25:34;;;;;;;;;;;12.10;99.90;;;;;;12551247;28;19978;-36
2023/10/23 18:31:36;;;;;;;;;;;12.10;99.90;;;;;;12533087;28;19935;-36
2023/10/23 18:37:38;;;;;;;;;;;12.00;99.90;;;;;;12548153;28;19932;-36
2023/10/23 18:43:40;;;;;;;;;;;12.00;99.90;;;;;;12509517;28;19928;-35
2023/10/23 18:49:44;;;;;;;;;;;12.00;99.90;;;;;;12548270;28;20008;-36
2023/10/23 18:55:45;;;;;;;;;;;12.10;99.90;;;;;;12551061;28;20050;-37
2023/10/23 19:01:47;;;;;;;;;;;12.10;99.90;;;;;;12541050;28;20917;-36
2023/10/23 19:07:49;;;;;;;;;;;12.10;99.90;;;;;;12553844;28;19928;-36
2023/10/23 19:13:51;;;;;;;;;;;12.10;99.90;;;;;;12544677;28;20418;-37
2023/10/23 19:19:53;;;;;;;;;;;12.10;99.90;;;;;;12625289;28;19930;-36
2023/10/23 19:25:54;;;;;;;;;;;12.20;99.90;;;;;;12611224;28;19928;-37
2023/10/23 19:31:58;;;;;;;;;;;12.20;99.90;;;;;;12599336;28;19928;-36
2023/10/23 19:38:00;;;;;;;;;;;12.10;99.90;;;;;;12612992;28;19993;-36
2023/10/23 19:44:02;;;;;;;;;;;12.00;99.90;;;;;;12594471;28;20026;-36
2023/10/23 19:50:04;;;;;;;;;;;12.00;99.90;;;;;;12609639;28;19970;-36
2023/10/23 19:56:06;;;;;;;;;;;12.00;99.90;;;;;;12607195;28;19936;-36
2023/10/23 20:02:07;;;;;;;;;;;12.00;99.90;;;;;;12614820;28;19932;-36
2023/10/23 20:08:09;;;;;;;;;;;12.00;99.90;;;;;;12606235;28;20018;-35
2023/10/23 20:14:14;;;;;;;;;;;12.00;99.90;;;;;;12614790;28;19927;-36
2023/10/23 20:20:16;;;;;;;;;;;12.00;99.90;;;;;;12604737;28;19928;-36
2023/10/23 20:26:18;;;;;;;;;;;12.00;99.90;;;;;;12606891;28;19984;-36
2023/10/23 20:32:21;;;;;;;;;;;11.90;99.90;;;;;;12603911;28;20140;-36
2023/10/23 20:38:23;;;;;;;;;;;11.90;99.90;;;;;;12578853;28;20491;-36
2023/10/23 20:44:25;;;;;;;;;;;11.90;99.90;;;;;;12602710;28;19928;-36
2023/10/23 20:50:27;;;;;;;;;;;11.90;99.90;;;;;;12594541;28;20014;-37
2023/10/23 20:56:29;;;;;;;;;;;11.90;99.90;;;;;;12612565;28;20284;-36
2023/10/23 21:02:31;;;;;;;;;;;12.00;99.90;;;;;;12599514;28;19932;-36
2023/10/23 21:08:36;;;;;;;;;;;11.90;99.90;;;;;;12603127;28;20448;-37
2023/10/23 21:14:46;;;;;;;;;;;11.90;99.90;;;;;;12599738;28;19928;-36
2023/10/23 21:20:48;;;;;;;;;;;11.90;99.90;;;;;;12599355;28;19932;-36
2023/10/23 21:26:49;;;;;;;;;;;11.80;99.90;;;;;;12602737;28;19978;-36
2023/10/23 21:32:51;;;;;;;;;;;11.80;99.90;;;;;;12601529;28;20396;-36
2023/10/23 21:38:53;;;;;;;;;;;11.70;99.90;;;;;;12594421;28;20019;-36
2023/10/23 21:44:55;;;;;;;;;;;11.70;99.90;;;;;;12617900;28;20498;-36
2023/10/23 21:50:56;;;;;;;;;;;11.70;99.90;;;;;;12606614;28;20566;-36
2023/10/23 21:56:59;;;;;;;;;;;11.80;99.90;;;;;;12625920;28;19936;-36
2023/10/23 22:03:21;;;;;;;;;;;11.60;99.90;;;;;;12616023;28;19928;-36
2023/10/23 22:09:23;;;;;;;;;;;11.60;99.90;;;;;;12599218;28;20025;-37
2023/10/23 22:15:24;;;;;;;;;;;11.70;99.90;;;;;;12609256;28;20055;-36
2023/10/23 22:21:26;;;;;;;;;;;11.70;99.90;;;;;;12610409;28;19932;-37
2023/10/23 22:27:30;;;;;;;;;;;11.80;99.90;;;;;;12619499;28;21356;-36
2023/10/23 22:33:32;;;;;;;;;;;11.60;99.90;;;;;;12607167;28;19928;-36
2023/10/23 22:39:33;;;;;;;;;;;11.50;99.90;;;;;;12604441;28;19957;-37
2023/10/23 23:19:11;;;;;;;5.43;2.13;;;11.60;99.90;;;;;;14888320;22;15062202;-81
2023/10/23 23:25:13;;;;;;;7.53;2.20;;;11.50;99.90;;;;;;15553381;22;20031;-81
2023/10/23 23:31:15;;;;;;;8.18;2.30;;;11.30;99.90;;;;;;15554599;22;20020;-82
2023/10/23 23:37:17;;;;;;;4.10;2.38;;;11.30;99.90;;;;;;15584579;22;20039;-82
2023/10/23 23:43:19;;;;;;;5.00;2.65;;;11.30;99.90;;;;;;15560734;22;20106;-82
2023/10/23 23:49:22;;;;;;;3.83;2.13;;;11.30;99.90;;;;;;15549946;22;20046;-82
2023/10/23 23:55:25;;;;;;;6.47;1.63;;;11.30;99.90;;;;;;15547189;22;20126;-81
